Satsop, Washington
Current Conditions -  °F | °C
As of 6:53 AM on Wednesday 26 Nov 2014 (Local Time) from KHQM Reporting Station
Overcast Overcast  
Wind Chill: 53°   Ceiling: 800
Heat Index: 53°   Visibility: 8mi
Dew Point: 53°   Wind: 10mph
Humidity: 100%   Direction: 170°S
Pressure: 30.14"   Gusts: NA
Location:  47°N, 123.48°W
Report Text: KHQM 261453Z AUTO 17009KT 8SM BKN008 OVC033 12/12 A3014 RMK AO2 RAB37E49 CIG 007V011 SLP210 P0000 60001 T01170117 55005
Loading
Personal Weather Stations






























Interactive Weather Map New forecast layout! Learn more

10-Day Weather Forecast

Advertisements
Track Severe Weather on mobile